Time;durP1;ratioP1;P1;durP2;ratioP2;P2;SDS_P1;SDS_P2;PMS_P1;PMS_P2;Temp;Humidity;BMP_temperature;BMP_pressure;BME280_temperature;BME280_humidity;BME280_pressure;Samples;Min_cycle;Max_cycle;Signal;HPM_P1;HPM_P2
2022/09/13 00:00:48;;;;;;;4.68;4.28;;;20.60;71.70;;;;;;5071763;28;20024;-28
2022/09/13 00:03:14;;;;;;;5.05;4.15;;;20.60;71.80;;;;;;5071368;28;20024;-30
2022/09/13 00:05:40;;;;;;;4.28;3.85;;;20.60;71.80;;;;;;5071290;28;20028;-46
2022/09/13 00:08:06;;;;;;;4.60;4.00;;;20.60;71.90;;;;;;5071663;28;20074;-45
2022/09/13 00:10:34;;;;;;;4.57;4.18;;;20.60;71.90;;;;;;5071234;28;20556;-46
2022/09/13 00:13:00;;;;;;;5.82;4.60;;;20.60;71.90;;;;;;5071421;28;20048;-27
2022/09/13 00:15:27;;;;;;;5.10;4.50;;;20.50;71.90;;;;;;5071577;28;20021;-28
2022/09/13 00:17:52;;;;;;;5.47;4.97;;;20.50;71.90;;;;;;5069913;28;20017;-26
2022/09/13 00:20:18;;;;;;;4.55;4.05;;;20.50;71.90;;;;;;5075084;28;20078;-28
2022/09/13 00:22:43;;;;;;;5.57;4.43;;;20.50;71.90;;;;;;5075450;28;20484;-27
2022/09/13 00:25:09;;;;;;;4.63;4.10;;;20.50;72.00;;;;;;5075219;28;20035;-28
2022/09/13 00:27:36;;;;;;;5.18;4.65;;;20.50;72.10;;;;;;5075095;28;20024;-26
2022/09/13 00:30:04;;;;;;;5.00;4.43;;;20.50;72.20;;;;;;5075213;28;20077;-28
2022/09/13 00:32:29;;;;;;;5.40;4.90;;;20.40;72.30;;;;;;5074917;28;20012;-27
2022/09/13 00:34:55;;;;;;;6.40;4.45;;;20.40;72.30;;;;;;5074946;28;20111;-27
2022/09/13 00:37:21;;;;;;;6.28;4.78;;;20.40;72.30;;;;;;5074788;28;20498;-27
2022/09/13 00:39:46;;;;;;;6.13;4.50;;;20.40;72.30;;;;;;5074942;28;20037;-27
2022/09/13 00:42:12;;;;;;;6.50;4.63;;;20.40;72.30;;;;;;5074996;28;20023;-42
2022/09/13 00:44:56;;;;;;;5.18;4.57;;;20.40;72.30;;;;;;5074605;28;20479;-42
2022/09/13 00:47:33;;;;;;;4.93;4.43;;;20.40;72.50;;;;;;5074501;28;20032;-44
2022/09/13 00:50:16;;;;;;;4.75;4.35;;;20.40;72.50;;;;;;5074577;28;20223;-43
2022/09/13 00:53:04;;;;;;;5.60;4.28;;;20.40;72.50;;;;;;5074589;28;20020;-44
2022/09/13 00:55:36;;;;;;;4.95;4.45;;;20.40;72.50;;;;;;5074660;28;20145;-45
2022/09/13 00:58:09;;;;;;;5.47;4.50;;;20.30;72.50;;;;;;5074840;28;20473;-45
2022/09/13 01:00:36;;;;;;;6.47;4.75;;;20.30;72.50;;;;;;5072961;28;20162;-44
2022/09/13 01:03:08;;;;;;;4.93;4.30;;;20.30;72.60;;;;;;5074748;28;20021;-44
2022/09/13 01:05:48;;;;;;;4.60;3.95;;;20.30;72.70;;;;;;5074400;28;20024;-44
2022/09/13 01:08:21;;;;;;;5.28;4.25;;;20.30;72.80;;;;;;5074359;28;20329;-45
2022/09/13 01:10:48;;;;;;;6.43;4.43;;;20.30;72.90;;;;;;5074276;28;20021;-43
2022/09/13 01:13:30;;;;;;;5.18;4.68;;;20.30;72.90;;;;;;5074599;28;20044;-28
2022/09/13 01:15:56;;;;;;;4.83;4.30;;;20.30;73.00;;;;;;5074721;28;20028;-27
2022/09/13 01:18:22;;;;;;;6.70;5.00;;;20.30;73.10;;;;;;5074181;28;20025;-29
2022/09/13 01:20:59;;;;;;;5.63;4.90;;;20.20;73.20;;;;;;5074157;28;20078;-28
2022/09/13 01:23:37;;;;;;;5.93;4.82;;;20.20;73.30;;;;;;5074094;28;20119;-28
2022/09/13 01:26:30;;;;;;;5.13;4.63;;;20.20;73.40;;;;;;5074048;28;20479;-27
2022/09/13 01:29:15;;;;;;;4.95;4.45;;;20.20;73.50;;;;;;5073923;28;20031;-27
2022/09/13 01:31:52;;;;;;;5.45;4.90;;;20.20;73.50;;;;;;5073236;28;20449;-27
2022/09/13 01:34:51;;;;;;;5.57;5.07;;;20.10;73.60;;;;;;5074247;28;20017;-45
2022/09/13 01:37:43;;;;;;;5.82;5.18;;;20.10;73.80;;;;;;5073733;28;20029;-45
2022/09/13 01:40:34;;;;;;;6.20;4.85;;;20.10;73.90;;;;;;5073792;28;20086;-45
2022/09/13 01:43:23;;;;;;;5.72;5.20;;;20.10;74.00;;;;;;5073988;28;20033;-45
2022/09/13 01:46:03;;;;;;;5.80;5.13;;;20.10;74.00;;;;;;5073600;28;20024;-28
2022/09/13 01:48:53;;;;;;;5.75;5.25;;;20.10;74.20;;;;;;5073598;28;20025;-27
2022/09/13 01:51:56;;;;;;;6.07;5.25;;;20.10;74.30;;;;;;5072295;28;20113;-29
2022/09/13 01:54:36;;;;;;;5.50;5.00;;;20.10;74.30;;;;;;5072348;28;20054;-30
2022/09/13 01:57:04;;;;;;;5.85;5.32;;;20.10;74.30;;;;;;5073478;28;20128;-27
2022/09/13 01:59:45;;;;;;;7.82;5.60;;;20.10;74.40;;;;;;5073453;28;20029;-27
2022/09/13 02:02:24;;;;;;;7.72;5.15;;;20.10;74.40;;;;;;5073384;28;20075;-27
2022/09/13 02:04:55;;;;;;;5.55;4.97;;;20.10;74.50;;;;;;5073386;28;20498;-26
2022/09/13 02:07:32;;;;;;;6.57;5.60;;;20.10;74.50;;;;;;5073250;28;20051;-27
2022/09/13 02:10:04;;;;;;;7.43;5.10;;;20.10;74.60;;;;;;5073085;28;20078;-26
2022/09/13 02:12:33;;;;;;;7.33;5.43;;;20.10;74.60;;;;;;5073344;28;20028;-27
2022/09/13 02:15:11;;;;;;;5.50;4.78;;;20.10;74.70;;;;;;5073288;28;20115;-28
2022/09/13 02:17:41;;;;;;;6.35;5.20;;;20.00;74.80;;;;;;5073167;28;20020;-44
2022/09/13 02:20:27;;;;;;;6.30;5.40;;;20.10;74.80;;;;;;5073092;28;20024;-44
2022/09/13 02:22:56;;;;;;;5.70;5.20;;;20.10;74.80;;;;;;5072960;28;20121;-28
2022/09/13 02:25:25;;;;;;;6.22;5.57;;;20.10;74.80;;;;;;5072953;28;20055;-44
2022/09/13 02:27:57;;;;;;;6.20;5.57;;;20.10;74.60;;;;;;5073379;28;20021;-44
2022/09/13 02:30:23;;;;;;;6.30;5.70;;;20.10;74.50;;;;;;5072672;28;20020;-45
2022/09/13 02:32:53;;;;;;;6.88;5.45;;;20.10;74.40;;;;;;5072596;28;20405;-45
2022/09/13 02:35:26;;;;;;;8.75;6.30;;;20.10;74.30;;;;;;5072640;28;20031;-28
2022/09/13 02:37:59;;;;;;;6.93;5.88;;;20.10;74.20;;;;;;5072795;28;20020;-28
2022/09/13 02:40:30;;;;;;;6.43;5.72;;;20.10;74.10;;;;;;5072611;28;20029;-27
2022/09/13 02:43:14;;;;;;;7.72;6.20;;;20.10;74.10;;;;;;5071831;28;20016;-28
2022/09/13 02:45:51;;;;;;;6.80;6.20;;;20.10;73.90;;;;;;5072407;28;20452;-27
2022/09/13 02:49:00;;;;;;;7.45;6.55;;;20.10;73.80;;;;;;5072506;28;20097;-26
2022/09/13 02:51:51;;;;;;;7.07;6.38;;;20.00;73.50;;;;;;5063968;28;20091;-27
2022/09/13 02:54:31;;;;;;;6.70;6.00;;;20.00;73.40;;;;;;5072297;28;20108;-27
2022/09/13 02:57:15;;;;;;;6.25;5.65;;;20.00;73.40;;;;;;5072344;28;20484;-26
2022/09/13 02:59:41;;;;;;;5.97;5.18;;;20.00;73.30;;;;;;5070848;28;20056;-28
2022/09/13 03:02:13;;;;;;;6.07;5.18;;;20.00;73.10;;;;;;5072440;28;20071;-27
2022/09/13 03:04:39;;;;;;;5.70;5.20;;;20.00;73.00;;;;;;5072546;28;20056;-28
2022/09/13 03:07:12;;;;;;;5.75;5.20;;;20.00;73.00;;;;;;5072634;28;20062;-28
2022/09/13 03:10:07;;;;;;;;;;;20.00;72.90;;;;;;5072458;28;20064;-43
2022/09/13 03:12:44;;;;;;;7.75;5.55;;;19.90;72.90;;;;;;5071729;28;19955;-44
2022/09/13 03:15:29;;;;;;;5.95;5.35;;;19.90;73.00;;;;;;5072337;28;20094;-44
2022/09/13 03:17:54;;;;;;;6.32;5.60;;;19.80;73.00;;;;;;5072101;28;20107;-44
2022/09/13 03:20:45;;;;;;;6.63;5.57;;;19.80;73.00;;;;;;5072117;28;20392;-28
2022/09/13 03:23:38;;;;;;;6.28;5.68;;;19.80;73.00;;;;;;5072018;28;20056;-45
2022/09/13 03:26:22;;;;;;;6.65;5.47;;;19.80;73.10;;;;;;5072138;28;20437;-44
2022/09/13 03:29:10;;;;;;;6.65;5.78;;;19.80;73.10;;;;;;5072212;28;20388;-42
2022/09/13 03:32:02;;;;;;;6.45;5.45;;;19.80;73.10;;;;;;5072080;28;20032;-44
2022/09/13 03:34:51;;;;;;;7.07;5.30;;;19.80;73.20;;;;;;5071748;28;20054;-42
2022/09/13 03:37:31;;;;;;;6.53;5.15;;;19.80;73.40;;;;;;5071754;28;20035;-28
2022/09/13 03:40:04;;;;;;;6.28;5.68;;;19.80;73.40;;;;;;5071834;28;20553;-28
2022/09/13 03:42:54;;;;;;;8.35;5.97;;;19.80;73.50;;;;;;5071694;28;20020;-44
2022/09/13 03:45:26;;;;;;;6.20;5.55;;;19.80;73.50;;;;;;5071392;28;20074;-42
2022/09/13 03:47:52;;;;;;;6.70;6.00;;;19.80;73.50;;;;;;5071884;28;20020;-43
2022/09/13 03:50:21;;;;;;;8.55;6.07;;;19.80;73.40;;;;;;5071337;28;20052;-45
2022/09/13 03:52:56;;;;;;;8.07;6.18;;;19.80;73.40;;;;;;5071740;28;20035;-28
2022/09/13 03:55:22;;;;;;;6.00;5.40;;;19.80;73.30;;;;;;5078006;28;20017;-27
2022/09/13 03:57:48;;;;;;;6.65;5.95;;;19.80;73.30;;;;;;5078128;28;20078;-28
2022/09/13 04:00:14;;;;;;;6.57;5.80;;;19.80;73.30;;;;;;5078538;28;20024;-44
2022/09/13 04:02:40;;;;;;;8.02;5.78;;;19.80;73.30;;;;;;5078166;28;20099;-45
2022/09/13 04:05:06;;;;;;;7.78;6.20;;;19.90;73.40;;;;;;5078123;28;20448;-45
2022/09/13 04:07:32;;;;;;;7.55;6.22;;;19.90;73.40;;;;;;5078073;28;20032;-45
2022/09/13 04:09:58;;;;;;;8.95;6.10;;;19.80;73.40;;;;;;5078266;28;20056;-45
2022/09/13 04:12:23;;;;;;;6.38;5.70;;;19.80;73.40;;;;;;5078354;28;20524;-45
2022/09/13 04:14:49;;;;;;;6.35;5.72;;;19.80;73.40;;;;;;5078119;28;20107;-45
2022/09/13 04:17:15;;;;;;;7.95;5.78;;;19.90;73.60;;;;;;5078344;28;20384;-44
2022/09/13 04:19:43;;;;;;;6.95;6.00;;;19.80;73.50;;;;;;5077974;28;20024;-45
2022/09/13 04:22:09;;;;;;;6.50;5.90;;;19.90;73.60;;;;;;5077854;28;20052;-46
2022/09/13 04:24:35;;;;;;;7.35;6.53;;;19.90;73.70;;;;;;5078208;28;20428;-44
2022/09/13 04:27:01;;;;;;;7.38;6.65;;;19.90;73.60;;;;;;5078157;28;20029;-46
2022/09/13 04:29:27;;;;;;;7.13;6.40;;;19.90;74.20;;;;;;5076448;28;20032;-45
2022/09/13 04:31:54;;;;;;;7.72;6.80;;;19.80;73.50;;;;;;5077876;28;20025;-45
2022/09/13 04:34:21;;;;;;;6.95;6.25;;;19.80;73.50;;;;;;5078008;28;20043;-44
2022/09/13 04:36:48;;;;;;;7.68;6.32;;;19.80;73.60;;;;;;5077786;28;20025;-28
2022/09/13 04:39:14;;;;;;;7.97;6.35;;;19.90;73.60;;;;;;5077619;28;20035;-30
2022/09/13 04:41:41;;;;;;;6.88;6.10;;;19.90;73.70;;;;;;5078069;28;20017;-29
2022/09/13 04:44:07;;;;;;;7.25;6.10;;;19.80;73.70;;;;;;5077801;28;20020;-27
2022/09/13 04:46:32;;;;;;;8.05;6.68;;;19.80;73.70;;;;;;5077674;28;20100;-30
2022/09/13 04:48:58;;;;;;;9.20;6.47;;;19.80;73.70;;;;;;5077812;28;20024;-29
2022/09/13 04:51:24;;;;;;;6.78;5.90;;;19.80;73.60;;;;;;5078024;28;20009;-44
2022/09/13 04:53:54;;;;;;;6.97;6.13;;;19.80;73.60;;;;;;5077641;28;20025;-44
2022/09/13 04:56:21;;;;;;;7.53;6.50;;;19.70;73.70;;;;;;5077938;28;20035;-27
2022/09/13 04:58:50;;;;;;;8.70;6.35;;;19.70;73.70;;;;;;5078071;28;20039;-28
2022/09/13 05:01:16;;;;;;;7.63;6.40;;;19.80;73.80;;;;;;5077739;28;20025;-26
2022/09/13 05:03:42;;;;;;;8.07;6.32;;;19.70;73.80;;;;;;5077723;28;20510;-29
2022/09/13 05:06:10;;;;;;;6.90;6.20;;;19.70;73.90;;;;;;5074296;28;20134;-28
2022/09/13 05:08:36;;;;;;;7.85;6.20;;;19.70;73.90;;;;;;5074543;28;20511;-29
2022/09/13 05:11:03;;;;;;;7.30;6.18;;;19.70;74.10;;;;;;5074339;28;20032;-28
2022/09/13 05:13:29;;;;;;;6.95;6.13;;;19.80;74.20;;;;;;5073923;28;20112;-42
2022/09/13 05:16:00;;;;;;;8.05;6.18;;;19.80;74.30;;;;;;5074649;28;20020;-42
2022/09/13 05:18:31;;;;;;;6.80;6.10;;;19.80;74.50;;;;;;5074073;28;20052;-44
2022/09/13 05:20:58;;;;;;;8.05;6.63;;;19.70;74.50;;;;;;5074392;28;20432;-45
2022/09/13 05:23:25;;;;;;;7.50;6.47;;;19.70;74.60;;;;;;5074160;28;20027;-45
2022/09/13 05:25:55;;;;;;;7.35;6.50;;;19.80;74.80;;;;;;5073967;28;20027;-45
2022/09/13 05:28:22;;;;;;;8.60;6.93;;;19.80;74.90;;;;;;5074251;28;20085;-44
2022/09/13 05:30:55;;;;;;;12.50;7.97;;;19.80;74.90;;;;;;5074022;28;20058;-45
2022/09/13 05:33:21;;;;;;;10.23;8.32;;;19.80;75.00;;;;;;5073657;28;20020;-45
2022/09/13 05:35:47;;;;;;;10.70;7.78;;;19.80;75.10;;;;;;5074236;28;20028;-44
2022/09/13 05:38:12;;;;;;;9.70;8.32;;;19.80;75.10;;;;;;5074272;28;20020;-45
2022/09/13 05:40:38;;;;;;;10.18;8.02;;;19.70;75.20;;;;;;5073858;28;20413;-45
2022/09/13 05:43:03;;;;;;;9.10;8.07;;;19.70;75.20;;;;;;5074049;28;20055;-44
2022/09/13 05:45:29;;;;;;;9.73;8.13;;;19.70;75.30;;;;;;5073843;28;20392;-45
2022/09/13 05:47:54;;;;;;;10.40;8.35;;;19.80;75.30;;;;;;5073767;28;20158;-45
2022/09/13 05:50:20;;;;;;;9.32;7.97;;;19.70;75.30;;;;;;5072049;28;20041;-45
2022/09/13 05:52:55;;;;;;;10.65;7.93;;;19.80;75.30;;;;;;5073575;28;20177;-29
2022/09/13 05:55:22;;;;;;;8.68;7.78;;;19.80;75.40;;;;;;5073467;28;20017;-27
2022/09/13 05:57:48;;;;;;;8.45;7.55;;;19.80;75.40;;;;;;5073559;28;20496;-26
2022/09/13 06:00:15;;;;;;;9.35;7.47;;;19.80;75.40;;;;;;5073465;28;20178;-27
2022/09/13 06:02:41;;;;;;;10.38;7.57;;;19.80;75.40;;;;;;5072011;28;20488;-27
2022/09/13 06:05:09;;;;;;;8.27;7.45;;;19.80;75.30;;;;;;5073573;28;20044;-26
2022/09/13 06:07:35;;;;;;;8.15;7.05;;;19.90;75.20;;;;;;5073870;28;20198;-29
2022/09/13 06:10:01;;;;;;;9.65;7.35;;;19.90;75.20;;;;;;5073390;28;20060;-27
2022/09/13 06:12:27;;;;;;;8.80;7.53;;;19.90;75.10;;;;;;5073297;28;20024;-28
2022/09/13 06:14:52;;;;;;;9.18;7.93;;;19.90;75.00;;;;;;5073498;28;20069;-32
2022/09/13 06:17:18;;;;;;;9.85;8.18;;;20.00;75.00;;;;;;5073050;28;20024;-45
2022/09/13 06:19:43;;;;;;;8.98;7.50;;;20.00;74.80;;;;;;5073817;28;20095;-44
2022/09/13 06:22:12;;;;;;;8.38;7.50;;;20.10;74.80;;;;;;5073183;28;20025;-44
2022/09/13 06:24:38;;;;;;;9.60;8.60;;;20.10;74.80;;;;;;5073179;28;20035;-44
2022/09/13 06:27:03;;;;;;;9.85;8.00;;;20.10;74.80;;;;;;5073068;28;20024;-47
2022/09/13 06:29:29;;;;;;;9.40;8.40;;;20.20;74.70;;;;;;5073667;28;20024;-44
2022/09/13 06:31:55;;;;;;;9.15;8.10;;;20.20;74.60;;;;;;5073102;28;20017;-44
2022/09/13 06:34:20;;;;;;;9.32;8.00;;;20.20;74.40;;;;;;5073281;28;20454;-44
2022/09/13 06:36:46;;;;;;;9.15;8.13;;;20.20;74.40;;;;;;5072833;28;20081;-44
2022/09/13 06:39:12;;;;;;;10.55;8.10;;;20.30;74.30;;;;;;5072736;28;20024;-44
2022/09/13 06:41:37;;;;;;;9.85;8.52;;;20.40;74.20;;;;;;5072699;28;20032;-44
2022/09/13 06:44:03;;;;;;;10.27;8.32;;;20.40;74.20;;;;;;5072759;28;20024;-41
2022/09/13 06:46:32;;;;;;;10.90;8.40;;;20.50;74.10;;;;;;5072723;28;20021;-46
2022/09/13 06:49:03;;;;;;;9.50;8.52;;;20.50;74.00;;;;;;5072669;28;20100;-45
2022/09/13 06:51:29;;;;;;;11.55;8.77;;;20.50;73.90;;;;;;5073201;28;20036;-45
2022/09/13 06:53:55;;;;;;;10.20;8.75;;;20.60;73.90;;;;;;5072782;28;20013;-46
2022/09/13 06:56:29;;;;;;;10.93;9.55;;;20.60;73.80;;;;;;5072989;28;20100;-45
2022/09/13 06:58:57;;;;;;;10.55;8.60;;;20.60;73.70;;;;;;5072719;28;20096;-44
2022/09/13 07:01:35;;;;;;;10.68;9.50;;;20.70;73.60;;;;;;5072722;28;20557;-44
2022/09/13 07:04:09;;;;;;;10.18;8.50;;;20.80;73.60;;;;;;5072609;28;20052;-46
2022/09/13 07:06:37;;;;;;;11.90;9.15;;;20.80;73.50;;;;;;5072741;28;20017;-42
2022/09/13 07:09:05;;;;;;;11.90;9.40;;;20.90;73.40;;;;;;5072589;28;20549;-44
2022/09/13 07:11:33;;;;;;;10.90;9.45;;;20.90;73.40;;;;;;5072805;28;20032;-44
2022/09/13 07:14:00;;;;;;;11.50;9.35;;;20.90;73.30;;;;;;5073004;28;20016;-44
2022/09/13 07:16:30;;;;;;;11.70;9.25;;;21.00;73.30;;;;;;5071339;28;20021;-44
2022/09/13 07:19:05;;;;;;;11.57;8.98;;;21.00;73.30;;;;;;5072734;28;20492;-44
2022/09/13 07:21:32;;;;;;;11.18;8.80;;;21.10;73.20;;;;;;5072605;28;20107;-44
2022/09/13 07:23:57;;;;;;;12.85;10.25;;;21.10;73.20;;;;;;5072678;28;20115;-43
2022/09/13 07:26:26;;;;;;;14.45;9.70;;;21.20;73.20;;;;;;5072941;28;20487;-44
2022/09/13 07:28:54;;;;;;;11.52;9.57;;;21.20;73.10;;;;;;5072009;28;20020;-42
2022/09/13 07:31:25;;;;;;;12.38;10.02;;;21.30;73.20;;;;;;5072476;28;20028;-44
2022/09/13 07:34:00;;;;;;;14.88;10.30;;;21.30;73.20;;;;;;5072590;28;20020;-44
2022/09/13 07:36:27;;;;;;;12.15;9.82;;;21.30;73.20;;;;;;5072461;28;20330;-44
2022/09/13 07:38:53;;;;;;;13.07;9.13;;;21.30;73.20;;;;;;5072804;28;20349;-43
2022/09/13 07:41:21;;;;;;;14.90;9.80;;;21.40;73.30;;;;;;5072585;28;20024;-44
2022/09/13 07:43:47;;;;;;;12.60;9.65;;;21.40;73.30;;;;;;5072581;28;20029;-43
2022/09/13 07:46:16;;;;;;;11.88;9.15;;;21.40;73.30;;;;;;5072728;28;20032;-43
2022/09/13 07:48:44;;;;;;;11.45;8.15;;;21.50;73.40;;;;;;5072226;28;20025;-46
2022/09/13 07:51:21;;;;;;;11.73;8.38;;;21.50;73.50;;;;;;5070551;28;20523;-44
2022/09/13 07:53:48;;;;;;;11.55;7.65;;;21.50;73.60;;;;;;5072409;28;20025;-44
2022/09/13 07:56:19;;;;;;;8.27;6.40;;;21.50;73.60;;;;;;5072058;28;20031;-44
2022/09/13 07:58:47;;;;;;;8.35;6.15;;;21.60;73.60;;;;;;5072086;28;20032;-45
2022/09/13 08:01:34;;;;;;;6.35;5.43;;;21.80;73.60;;;;;;5072133;28;20174;-44
2022/09/13 08:04:02;;;;;;;7.07;5.60;;;21.80;74.00;;;;;;5072112;28;20029;-45
2022/09/13 08:06:30;;;;;;;5.03;4.53;;;22.00;73.40;;;;;;5072485;28;20063;-43
2022/09/13 08:08:56;;;;;;;6.38;3.92;;;22.00;73.40;;;;;;5071929;28;20036;-44
2022/09/13 08:11:25;;;;;;;3.97;3.15;;;22.10;73.50;;;;;;5072452;28;20035;-45
2022/09/13 08:13:51;;;;;;;3.78;2.95;;;22.10;73.70;;;;;;5071991;28;20099;-44
2022/09/13 08:16:20;;;;;;;4.15;3.30;;;22.10;73.70;;;;;;5072527;28;20024;-43
2022/09/13 08:18:55;;;;;;;3.45;3.05;;;22.20;73.70;;;;;;5071916;28;20046;-44
2022/09/13 08:21:22;;;;;;;4.28;3.50;;;22.30;73.80;;;;;;5071685;28;20024;-45
2022/09/13 08:23:48;;;;;;;3.58;2.90;;;22.30;73.70;;;;;;5071902;28;20036;-44
2022/09/13 08:26:15;;;;;;;5.20;3.70;;;22.40;73.70;;;;;;5071957;28;20079;-45
2022/09/13 08:28:41;;;;;;;6.95;4.75;;;22.40;73.70;;;;;;5072131;28;20024;-44
2022/09/13 08:31:07;;;;;;;7.68;6.20;;;22.40;73.60;;;;;;5072089;28;20082;-44
2022/09/13 08:33:33;;;;;;;8.43;5.75;;;22.30;73.70;;;;;;5072237;28;20025;-45
2022/09/13 08:35:59;;;;;;;8.07;6.65;;;22.30;73.90;;;;;;5072149;28;20133;-44
2022/09/13 08:38:25;;;;;;;7.13;6.35;;;22.30;74.00;;;;;;5072225;28;20129;-44
2022/09/13 08:40:55;;;;;;;8.20;6.80;;;22.20;74.00;;;;;;5073143;28;20352;-44
2022/09/13 08:43:28;;;;;;;10.07;7.13;;;22.30;74.10;;;;;;5075444;28;20031;-45
2022/09/13 08:46:15;;;;;;;9.00;7.68;;;22.30;73.90;;;;;;5075628;28;20036;-45
2022/09/13 08:48:44;;;;;;;8.82;6.65;;;22.40;73.90;;;;;;5075543;28;20036;-44
2022/09/13 08:51:24;;;;;;;12.32;8.00;;;22.40;73.90;;;;;;5075047;28;20056;-44
2022/09/13 08:53:50;;;;;;;10.48;7.75;;;22.40;73.80;;;;;;5075341;28;20032;-45
2022/09/13 08:56:30;;;;;;;8.43;7.40;;;22.50;73.90;;;;;;5075510;28;20025;-43
2022/09/13 08:59:14;;;;;;;11.70;7.13;;;22.50;73.80;;;;;;5075421;28;20025;-44
2022/09/13 09:02:11;;;;;;;7.38;6.47;;;22.50;73.70;;;;;;5075126;28;20021;-44
2022/09/13 09:04:41;;;;;;;7.20;5.78;;;22.60;73.60;;;;;;5074943;28;20047;-44
2022/09/13 09:07:21;;;;;;;7.03;5.70;;;22.70;73.60;;;;;;5074979;28;20028;-45
2022/09/13 09:09:58;;;;;;;9.43;6.57;;;22.70;73.50;;;;;;5075033;28;20128;-43
2022/09/13 09:12:41;;;;;;;6.70;5.55;;;22.80;73.40;;;;;;5075265;28;20494;-45
2022/09/13 09:15:20;;;;;;;9.02;5.45;;;22.80;73.40;;;;;;5075225;28;20427;-44
2022/09/13 09:17:59;;;;;;;6.88;5.07;;;22.90;73.30;;;;;;5074959;28;20028;-44
2022/09/13 09:20:36;;;;;;;5.70;4.68;;;22.90;73.10;;;;;;5074855;28;20056;-45
2022/09/13 09:23:11;;;;;;;5.43;4.72;;;22.90;73.10;;;;;;5075224;28;20024;-45
2022/09/13 09:25:37;;;;;;;5.20;4.70;;;22.90;73.00;;;;;;5074823;28;20036;-44
2022/09/13 09:28:11;;;;;;;4.97;4.47;;;22.80;73.00;;;;;;5075126;28;20024;-45
2022/09/13 09:31:07;;;;;;;6.25;4.55;;;22.70;73.20;;;;;;5074584;28;20499;-44
2022/09/13 09:33:53;;;;;;;7.15;4.82;;;22.70;73.30;;;;;;5074606;28;20059;-45
2022/09/13 09:36:36;;;;;;;4.38;3.97;;;22.60;73.20;;;;;;5074746;28;20024;-43
2022/09/13 09:39:09;;;;;;;;;;;22.60;73.40;;;;;;5075279;28;20013;-44
2022/09/13 09:41:37;;;;;;;4.63;3.45;;;22.60;73.30;;;;;;5074380;28;20387;-44
2022/09/13 09:44:17;;;;;;;5.13;3.65;;;22.60;73.20;;;;;;5074602;28;20052;-44
2022/09/13 09:46:47;;;;;;;3.55;3.20;;;22.70;73.20;;;;;;5074479;28;20035;-44
2022/09/13 09:52:11;;;;;;;4.93;3.00;;;22.70;73.00;;;;;;5073903;28;20546;-44
2022/09/13 09:54:40;;;;;;;3.10;2.80;;;22.80;73.10;;;;;;5075006;28;20408;-44
2022/09/13 09:57:07;;;;;;;3.10;2.80;;;22.80;73.00;;;;;;5074012;28;20500;-43
2022/09/13 09:59:33;;;;;;;3.22;2.63;;;22.80;72.80;;;;;;5074235;28;20024;-44
2022/09/13 10:02:00;;;;;;;3.65;3.15;;;22.90;72.80;;;;;;5073708;28;20024;-44
2022/09/13 10:04:27;;;;;;;3.40;3.08;;;22.90;72.70;;;;;;5074058;28;20032;-44
2022/09/13 10:07:33;;;;;;;3.33;2.80;;;23.00;72.50;;;;;;5074086;28;20069;-44
2022/09/13 10:10:04;;;;;;;3.92;3.00;;;23.10;72.30;;;;;;5071482;28;20036;-44
2022/09/13 10:12:33;;;;;;;3.30;2.60;;;23.00;72.20;;;;;;5073355;28;20029;-44
2022/09/13 10:15:14;;;;;;;3.30;2.65;;;23.10;72.20;;;;;;5073952;28;20435;-44
2022/09/13 10:17:40;;;;;;;4.75;3.20;;;23.10;72.00;;;;;;5073780;28;20071;-44
2022/09/13 10:20:20;;;;;;;3.65;2.80;;;23.20;71.80;;;;;;5073778;28;20429;-44
2022/09/13 10:23:15;;;;;;;3.33;2.78;;;23.10;71.80;;;;;;5072431;28;20399;-45
2022/09/13 10:25:55;;;;;;;5.10;2.95;;;23.10;71.90;;;;;;5073313;28;20021;-45
2022/09/13 10:28:21;;;;;;;2.83;2.40;;;23.10;71.90;;;;;;5073216;28;20028;-45
2022/09/13 10:31:20;;;;;;;2.55;2.33;;;23.20;71.80;;;;;;5073084;28;20467;-45
2022/09/13 10:33:48;;;;;;;2.60;2.40;;;23.30;71.50;;;;;;5071558;28;20073;-43
2022/09/13 10:36:26;;;;;;;3.45;2.15;;;23.30;71.40;;;;;;5073159;28;20017;-44
2022/09/13 10:39:16;;;;;;;3.65;2.33;;;23.30;71.20;;;;;;5073403;28;20384;-44
2022/09/13 10:41:47;;;;;;;2.22;1.95;;;23.20;71.20;;;;;;5072945;28;20023;-44
2022/09/13 10:44:50;;;;;;;2.47;2.00;;;23.20;71.30;;;;;;5073229;28;20382;-44
2022/09/13 10:47:23;;;;;;;2.20;1.95;;;23.30;71.30;;;;;;5071431;28;20023;-45
2022/09/13 10:49:56;;;;;;;3.05;1.90;;;23.30;71.20;;;;;;5072755;28;20048;-31
2022/09/13 10:52:31;;;;;;;2.72;2.17;;;23.40;71.10;;;;;;5072830;28;20051;-29
2022/09/13 10:55:24;;;;;;;4.43;2.00;;;23.50;70.80;;;;;;5072739;28;20052;-28
2022/09/13 10:57:51;;;;;;;3.97;2.25;;;23.50;70.50;;;;;;5072015;28;20094;-30
2022/09/13 11:00:36;;;;;;;2.55;2.05;;;23.40;70.40;;;;;;5072788;28;20044;-46
2022/09/13 11:03:06;;;;;;;1.50;1.40;;;23.40;70.40;;;;;;5072004;28;20036;-45
2022/09/13 11:05:43;;;;;;;2.28;1.60;;;23.40;70.40;;;;;;5072434;28;20032;-27
2022/09/13 11:08:27;;;;;;;1.92;1.42;;;23.50;70.20;;;;;;5072335;28;20029;-27
2022/09/13 11:11:19;;;;;;;2.20;1.48;;;23.60;69.80;;;;;;5072401;28;20037;-35
2022/09/13 11:14:14;;;;;;;2.40;1.58;;;23.60;69.20;;;;;;5072408;28;20071;-30
2022/09/13 11:17:09;;;;;;;1.75;1.50;;;23.60;69.40;;;;;;5072348;28;20455;-28
2022/09/13 11:19:37;;;;;;;1.70;1.20;;;23.70;69.40;;;;;;5072243;28;20032;-32
2022/09/13 11:22:51;;;;;;;2.22;1.20;;;23.90;69.20;;;;;;5072065;28;20039;-27
2022/09/13 11:25:33;;;;;;;1.63;0.88;;;24.00;68.80;;;;;;5071392;28;20518;-28
2022/09/13 11:28:13;;;;;;;1.17;1.08;;;24.10;68.50;;;;;;5072166;28;20047;-44
2022/09/13 11:31:16;;;;;;;1.27;0.88;;;24.10;68.30;;;;;;5072166;28;20032;-44
2022/09/13 11:34:08;;;;;;;1.20;1.10;;;24.20;67.80;;;;;;5071896;28;20060;-44
2022/09/13 11:36:59;;;;;;;1.10;0.98;;;24.20;67.80;;;;;;5072032;28;20043;-44
2022/09/13 11:39:30;;;;;;;1.55;0.70;;;24.20;67.70;;;;;;5071955;28;20032;-44
2022/09/13 11:42:13;;;;;;;1.90;0.80;;;24.10;67.80;;;;;;5071827;28;20391;-44
2022/09/13 11:45:27;;;;;;;3.03;0.95;;;24.10;67.60;;;;;;5072138;28;20515;-44
2022/09/13 11:48:16;;;;;;;0.88;0.70;;;24.10;67.50;;;;;;5072266;28;20035;-44
2022/09/13 11:50:47;;;;;;;0.85;0.65;;;24.10;68.00;;;;;;5072009;28;20197;-49
2022/09/13 11:53:13;;;;;;;0.95;0.80;;;24.20;67.20;;;;;;5072203;28;20035;-44
2022/09/13 11:55:47;;;;;;;2.25;0.90;;;24.30;67.00;;;;;;5072237;28;20021;-42
2022/09/13 11:58:20;;;;;;;1.02;0.60;;;24.30;66.70;;;;;;5072636;28;20060;-44
2022/09/13 12:01:11;;;;;;;1.35;0.82;;;24.40;66.70;;;;;;5072063;28;20460;-45
2022/09/13 12:03:41;;;;;;;0.93;0.60;;;24.50;66.50;;;;;;5071545;28;20512;-44
2022/09/13 12:06:21;;;;;;;0.65;0.60;;;24.60;66.40;;;;;;5070446;28;20033;-45
2022/09/13 12:08:55;;;;;;;1.13;0.73;;;24.70;65.90;;;;;;5071604;28;20033;-44
2022/09/13 12:11:27;;;;;;;0.75;0.75;;;24.70;65.70;;;;;;5071495;28;20024;-44
2022/09/13 12:13:59;;;;;;;0.55;0.55;;;24.50;65.40;;;;;;5071565;28;20036;-45
2022/09/13 12:16:30;;;;;;;0.80;0.77;;;24.40;65.80;;;;;;5075339;28;20028;-44
2022/09/13 12:19:05;;;;;;;1.20;0.65;;;24.30;65.90;;;;;;5075498;28;20039;-44
2022/09/13 12:21:40;;;;;;;0.47;0.40;;;24.30;66.10;;;;;;5076055;28;20025;-45
2022/09/13 12:24:32;;;;;;;2.05;0.60;;;24.30;66.20;;;;;;5075772;28;20081;-44
2022/09/13 12:27:04;;;;;;;1.13;0.70;;;24.30;66.10;;;;;;5075842;28;20040;-46
2022/09/13 12:30:14;;;;;;;0.82;0.60;;;24.30;66.00;;;;;;5075465;28;20028;-44
2022/09/13 12:32:43;;;;;;;0.88;0.70;;;24.30;66.00;;;;;;5075142;28;20040;-45
2022/09/13 12:35:16;;;;;;;1.38;0.70;;;24.30;65.90;;;;;;5075480;28;20028;-45
2022/09/13 12:37:42;;;;;;;;;;;24.40;65.80;;;;;;5076138;28;20035;-44
2022/09/13 12:40:42;;;;;;;0.82;0.60;;;24.50;65.80;;;;;;5075331;28;20270;-44
2022/09/13 12:43:37;;;;;;;1.70;0.57;;;24.70;65.30;;;;;;5075534;28;20065;-44
2022/09/13 12:46:18;;;;;;;1.42;0.65;;;24.80;64.70;;;;;;5075185;28;20043;-45
2022/09/13 12:49:20;;;;;;;1.00;0.60;;;24.80;64.40;;;;;;5075133;28;20028;-45
2022/09/13 12:52:29;;;;;;;2.10;0.60;;;24.90;64.10;;;;;;5075368;28;20036;-44
2022/09/13 12:54:56;;;;;;;1.10;0.38;;;24.90;63.90;;;;;;5073871;28;20302;-44
2022/09/13 12:57:31;;;;;;;2.17;0.47;;;24.80;64.00;;;;;;5075036;28;20016;-44
2022/09/13 13:00:20;;;;;;;1.52;0.70;;;24.80;64.20;;;;;;5075013;28;20056;-44
2022/09/13 13:03:00;;;;;;;0.73;0.60;;;24.80;63.90;;;;;;5075244;28;20086;-45
2022/09/13 13:05:35;;;;;;;2.08;0.75;;;24.80;63.90;;;;;;5075350;28;20032;-45
2022/09/13 13:08:19;;;;;;;2.92;1.10;;;25.00;63.50;;;;;;5075014;28;20025;-44
2022/09/13 13:11:08;;;;;;;2.58;0.80;;;25.00;63.10;;;;;;5075235;28;20040;-44
2022/09/13 13:13:44;;;;;;;0.52;0.52;;;25.20;62.60;;;;;;5075502;28;20326;-44
2022/09/13 13:16:24;;;;;;;0.73;0.50;;;25.20;62.30;;;;;;5075064;28;20040;-45
2022/09/13 13:18:53;;;;;;;1.33;0.80;;;25.30;62.00;;;;;;5073565;28;20081;-45
2022/09/13 13:21:32;;;;;;;0.50;0.50;;;25.30;61.70;;;;;;5074884;28;20020;-45
2022/09/13 13:24:17;;;;;;;0.52;0.50;;;25.30;61.60;;;;;;5074985;28;20017;-44